• Join FlightAware (Why Join?)
  • Login
  • US Flag 
06:32AM EDT


 

Airport Tracker/Info


-or-


 

Live Flight TrackerFlight Track Log ✈ AAL963 ✈ 24-Aug-2013 ✈ KDFW - SBGR / GRU

Flight Track Log - Related Links

Times and Time Zones

All times are in EDT time to prevent confusion due to time zone crossing. See the AAL963 flight status page for this flight to view local times or setup timezone preferences in your user account.

Time Position Orientation Groundspeed Altitude Reporting Facility
EDT Latitude Longitude Course Direction KTS MPH feet Rate Location/Type
09:14PM 32.8680 -97.0510 181° South 192 221 1,700  Level FlightAware
09:15PM 32.8490 -97.0520 183° South 202 232 2,200 900 Climbing FlightAware
09:15PM 32.8250 -97.0520 180° South 230 265 2,400 1,020 Climbing FlightAware
09:16PM 32.7880 -97.0520 180° South 257 296 3,200 1,560 Climbing FlightAware
09:16PM 32.7590 -97.0530 182° South 269 310 3,900 1,860 Climbing FlightAware
09:16PM 32.7330 -97.0530 180° South 273 314 4,600 2,220 Climbing FlightAware
09:17PM 32.7180 -97.0530 180° South 276 318 5,100 2,280 Climbing FlightAware
09:17PM 32.6870 -97.0530 180° South 281 323 6,000 2,100 Climbing FlightAware
09:17PM 32.6730 -97.0540 183° South 283 326 6,300 2,220 Climbing FlightAware
09:17PM 32.6440 -97.0550 182° South 288 331 7,200 2,160 Climbing FlightAware
09:18PM 32.6050 -97.0510 175° South 290 334 8,200 2,160 Climbing FlightAware
09:18PM 32.5950 -97.0470 161° South 289 333 8,600 2,520 Climbing FlightAware
09:18PM 32.5730 -97.0310 148° Southeast 285 328 9,400 2,100 Climbing FlightAware
09:19PM 32.5330 -96.9990 146° Southeast 294 338 10,600 1,800 Climbing FlightAware
09:20PM 32.4890 -96.9670 148° Southeast 318 366 11,600 1,500 Climbing FlightAware
09:20PM 32.4490 -96.9390 149° Southeast 342 394 12,300 1,620 Climbing FlightAware
09:21PM 32.3930 -96.9060 154° Southeast 363 418 13,500 1,980 Climbing FlightAware
09:21PM 32.3380 -96.8820 160° South 375 432 14,700 1,800 Climbing FlightAware
09:22PM 32.2760 -96.8550 160° South 391 450 15,700 1,320 Climbing FlightAware
09:23PM 32.2190 -96.8300 160° South 415 478 16,300 1,500 Climbing FlightAware
09:23PM 32.1550 -96.8010 159° South 422 486 17,400 1,860 Climbing FlightAware
09:24PM 32.1000 -96.7778 160° South 428 493 18,300 1,860 Climbing FlightAware ADS-B
09:24PM 32.0433 -96.7537 160° South 436 502 19,200 1,740 Climbing FlightAware ADS-B
09:25PM 31.9839 -96.7285 160° South 443 510 20,100 1,620 Climbing FlightAware ADS-B
09:25PM 31.9243 -96.7030 160° South 449 517 20,900 1,620 Climbing FlightAware ADS-B
09:26PM 31.8651 -96.6778 160° South 454 522 21,800 1,800 Climbing FlightAware ADS-B
09:26PM 31.8046 -96.6521 160° South 457 526 22,700 1,860 Climbing FlightAware ADS-B
09:27PM 31.7441 -96.6263 160° South 460 529 23,700 1,620 Climbing FlightAware ADS-B
09:27PM 31.6800 -96.5990 160° South 467 537 24,400 1,380 Climbing FlightAware ADS-B
09:28PM 31.5547 -96.5460 160° South 475 547 25,900 1,380 Climbing FlightAware ADS-B
09:29PM 31.4828 -96.5156 160° South 480 552 26,700 1,380 Climbing FlightAware ADS-B
09:29PM 31.4179 -96.4881 160° South 486 559 27,400 1,380 Climbing FlightAware ADS-B
09:31PM 31.2177 -96.4037 160° South 496 571 29,600 1,320 Climbing FlightAware ADS-B
09:31PM 31.1873 -96.3859 153° Southeast 494 568 29,900 1,560 Climbing FlightAware ADS-B
09:32PM 31.0954 -96.2696 126° Southeast 483 556 31,600 1,500 Climbing FlightAware ADS-B
09:33PM 31.0561 -96.2054 126° Southeast 484 557 32,200 780 Climbing FlightAware ADS-B
09:34PM 30.9533 -96.0579 133° Southeast 494 568 33,000 420 Climbing FlightAware ADS-B
09:34PM 30.9050 -96.0009 135° Southeast 494 568 33,000  Level FlightAware ADS-B
09:35PM 30.8060 -95.8873 136° Southeast 496 571 33,000  Level FlightAware ADS-B
09:36PM 30.7566 -95.8308 135° Southeast 497 572 33,000  Level FlightAware ADS-B
09:36PM 30.7036 -95.7705 136° Southeast 498 573 33,000  Level FlightAware ADS-B
09:37PM 30.6534 -95.7134 136° Southeast 498 573 33,000  Level FlightAware ADS-B
09:38PM 30.5486 -95.5945 136° Southeast 499 574 33,000  Level FlightAware ADS-B
09:38PM 30.4988 -95.5381 136° Southeast 499 574 33,000  Level FlightAware ADS-B
09:39PM 30.3985 -95.4249 136° Southeast 499 574 33,000  Level FlightAware ADS-B
09:40PM 30.3488 -95.3688 136° Southeast 496 571 33,000  Level FlightAware ADS-B
09:40PM 30.2985 -95.3123 136° Southeast 497 572 33,000  Level FlightAware ADS-B
09:41PM 30.2484 -95.2560 136° Southeast 497 572 33,000  Level FlightAware ADS-B
09:44PM 29.9471 -94.9192 136° Southeast 501 577 33,000  Level FlightAware ADS-B
09:44PM 29.8969 -94.8634 136° Southeast 501 577 33,000  Level FlightAware ADS-B
09:45PM 29.8464 -94.8073 136° Southeast 501 577 33,000  Level FlightAware ADS-B
09:47PM 29.6453 -94.5848 136° Southeast 498 573 33,000  Level FlightAware ADS-B
09:48PM 29.5947 -94.5291 136° Southeast 499 574 33,000  Level FlightAware ADS-B
09:48PM 29.5434 -94.4726 136° Southeast 499 574 33,000  Level FlightAware ADS-B
09:49PM 29.4930 -94.4173 136° Southeast 499 574 33,000  Level FlightAware ADS-B
09:49PM 29.4375 -94.3564 136° Southeast 499 574 33,000  Level FlightAware ADS-B
09:50PM 29.3874 -94.3015 136° Southeast 498 573 33,000  Level FlightAware ADS-B
09:50PM 29.3371 -94.2463 136° Southeast 496 571 33,000  Level FlightAware ADS-B
09:51PM 29.2871 -94.1915 136° Southeast 497 572 33,000  Level FlightAware ADS-B
09:51PM 29.2370 -94.1369 136° Southeast 497 572 33,000  Level FlightAware ADS-B
09:52PM 29.1865 -94.0818 136° Southeast 494 568 33,000  Level FlightAware ADS-B
09:53PM 29.0511 -93.9294 136° Southeast 493 567 33,000 -60 Level Houston Center
09:54PM 28.9564 -93.8242 136° Southeast 492 566 32,900  Descending Houston Center
09:55PM 28.8494 -93.7164 139° Southeast 495 570 33,000  Climbing Houston Center
09:56PM 28.7506 -93.6089 136° Southeast 492 566 33,000  Level Houston Center
10:02PM 28.0904 -93.0590 136° Southeast 489 563 33,000  Level FlightAware ADS-B
10:03PM 28.0111 -93.0015 147° Southeast 490 564 33,000  Level FlightAware ADS-B
10:03PM 27.9414 -92.9508 147° Southeast 490 564 33,000  Level FlightAware ADS-B
10:04PM 27.8831 -92.9088 148° Southeast 490 564 33,000  Level FlightAware ADS-B
10:05PM 27.7262 -92.7967 148° Southeast 489 563 33,000  Level FlightAware ADS-B
10:06PM 27.5841 -92.6977 148° Southeast 488 562 33,000  Level FlightAware ADS-B
10:07PM 27.4755 -92.6205 148° Southeast 487 560 33,000  Level FlightAware ADS-B
10:08PM 27.3889 -92.5561 148° Southeast 487 560 33,000 -60 Level Houston Center
10:09PM 27.2747 -92.4756 148° Southeast 485 558 32,900  Descending Houston Center
10:10PM 27.1603 -92.3969 149° Southeast 483 556 33,000  Climbing Houston Center
10:11PM 27.0467 -92.3175 148° Southeast 482 555 33,000  Level Houston Center
10:12PM 26.9328 -92.2353 147° Southeast 484 557 33,000  Level Houston Center
10:13PM 26.8169 -92.1594 150° Southeast 483 556 33,000 -60 Level Houston Center
10:14PM 26.6911 -92.0750 149° Southeast 483 556 32,900  Descending Houston Center
10:16PM 26.5757 -91.9352 133° Southeast  Level FlightAware Approximate
10:23PM 25.8920 -91.1946 139° Southeast  Level FlightAware Approximate
10:24PM 25.7897 -91.0950 139° Southeast  Level FlightAware Approximate
10:25PM 25.6873 -90.9956 139° Southeast  Level FlightAware Approximate
10:26PM 25.5847 -90.8963 139° Southeast  Level FlightAware Approximate
10:27PM 25.4822 -90.7971 139° Southeast  Level FlightAware Approximate
10:28PM 25.3798 -90.6979 139° Southeast  Level FlightAware Approximate
10:29PM 25.2776 -90.5985 139° Southeast  Level FlightAware Approximate
10:30PM 25.1753 -90.4993 139° Southeast  Level FlightAware Approximate
10:31PM 25.0729 -90.4002 139° Southeast  Level FlightAware Approximate
10:32PM 24.9705 -90.3014 139° Southeast  Level FlightAware Approximate
10:33PM 24.8680 -90.2026 139° Southeast  Level FlightAware Approximate
10:34PM 24.7655 -90.1041 139° Southeast  Level FlightAware Approximate
10:35PM 24.6628 -90.0057 139° Southeast  Level FlightAware Approximate
10:36PM 24.5602 -89.9075 139° Southeast  Level FlightAware Approximate
10:37PM 24.4552 -89.8127 146° Southeast  Level FlightAware Approximate
10:38PM 24.3420 -89.7298 146° Southeast  Level FlightAware Approximate
10:39PM 24.2287 -89.6470 146° Southeast  Level FlightAware Approximate
10:39PM 23.8780 -90.2150 146° Southeast 491 565 33,000  Level FlightAware
10:40PM 24.1154 -89.5643 146° Southeast  Level FlightAware Approximate
10:40PM 23.7970 -90.1770 157° South 491 565 33,000  Level FlightAware
10:41PM 23.7330 -90.1480 157° South 491 565 33,000  Level FlightAware
10:41PM 23.6690 -90.1180 157° South 491 565 33,000  Level FlightAware
10:42PM 23.6260 -90.0980 157° South 491 565 33,000  Level FlightAware
10:42PM 23.5620 -90.0690 157° South 491 565 33,000  Level FlightAware
10:43PM 23.4980 -90.0390 157° South 491 565 33,000  Level FlightAware
10:44PM 23.4340 -90.0090 157° South 491 565 33,000  Level FlightAware
10:44PM 23.3700 -89.9800 157° South 491 565 33,000  Level FlightAware
10:45PM 23.3060 -89.9500 157° South 491 565 33,000  Level FlightAware
10:45PM 23.2420 -89.9210 157° South 491 565 33,000  Level FlightAware
10:46PM 23.1780 -89.8910 157° South 491 565 33,000  Level FlightAware
10:47PM 23.1140 -89.8620 157° South 491 565 33,000  Level FlightAware
10:47PM 23.1390 -89.4020 87° East 498 573 33,000  Level FlightAware
10:48PM 23.0840 -89.3370 133° Southeast 496 571 33,000  Level FlightAware
10:48PM 23.0260 -89.2710 134° Southeast 496 571 33,000  Level FlightAware
10:49PM 22.9650 -89.2000 133° Southeast 497 572 33,000  Level FlightAware
10:50PM 22.9070 -89.1320 133° Southeast 500 575 33,000  Level FlightAware
10:50PM 22.8570 -89.0740 133° Southeast 501 577 33,000  Level FlightAware
10:51PM 22.8050 -89.0140 133° Southeast 503 579 33,000  Level FlightAware
10:51PM 22.7390 -88.9380 133° Southeast 501 577 33,000  Level FlightAware
10:52PM 22.6850 -88.8750 133° Southeast 500 575 33,000  Level FlightAware
10:53PM 22.6310 -88.8130 133° Southeast 495 570 33,000  Level FlightAware
10:53PM 22.5800 -88.7540 133° Southeast 492 566 33,000  Level FlightAware
10:54PM 22.5220 -88.6880 134° Southeast 491 565 33,000  Level FlightAware
10:54PM 22.4660 -88.6230 133° Southeast 493 567 33,000  Level FlightAware
10:55PM 22.4100 -88.5590 133° Southeast 490 564 33,000  Level FlightAware
10:55PM 22.3590 -88.5010 134° Southeast 489 563 33,000  Level FlightAware
10:56PM 22.2950 -88.4390 138° Southeast 488 562 33,000  Level FlightAware
10:57PM 22.2290 -88.3810 141° Southeast 488 562 33,000  Level FlightAware
10:57PM 22.1770 -88.3350 141° Southeast 486 559 33,000  Level FlightAware
10:58PM 22.1160 -88.2800 140° Southeast 485 558 33,000  Level FlightAware
10:58PM 22.0550 -88.2270 141° Southeast 484 557 33,000  Level FlightAware
10:59PM 21.9800 -88.1620 141° Southeast 483 556 33,000  Level FlightAware
11:00PM 21.9290 -88.1170 141° Southeast 484 557 33,000  Level FlightAware
11:00PM 21.8590 -88.0550 141° Southeast 484 557 33,000  Level FlightAware
11:01PM 21.7900 -87.9950 141° Southeast 486 559 33,000  Level FlightAware
11:01PM 21.7370 -87.9480 141° Southeast 486 559 33,000  Level FlightAware
11:02PM 21.6670 -87.8870 141° Southeast 486 559 33,000  Level FlightAware
11:03PM 21.6210 -87.8460 140° Southeast 486 559 33,000  Level FlightAware
11:03PM 21.5410 -87.7760 141° Southeast 488 562 33,000  Level FlightAware
11:04PM 21.4650 -87.7090 141° Southeast 489 563 33,000  Level FlightAware
11:05PM 21.4110 -87.6550 137° Southeast 490 564 33,000  Level FlightAware
11:05PM 21.3410 -87.5810 135° Southeast 492 566 33,000  Level FlightAware
11:06PM 21.2900 -87.5240 134° Southeast 490 564 33,000  Level FlightAware
11:06PM 21.2510 -87.4520 120° Southeast 489 563 33,000  Level FlightAware
11:07PM 21.2420 -87.4140 104° East 491 565 33,000  Level FlightAware
11:07PM 21.2340 -87.3260 96° East 491 565 33,000  Level FlightAware
11:08PM 21.2270 -87.2490 96° East 490 564 33,000  Level FlightAware
11:08PM 21.2200 -87.1620 95° East 489 563 33,000  Level FlightAware
11:09PM 21.2130 -87.0750 95° East 489 563 33,000  Level FlightAware
11:10PM 21.2080 -86.9890 94° East 488 562 33,000  Level FlightAware
11:10PM 21.2020 -86.9120 95° East 487 560 33,000  Level FlightAware
11:11PM 21.1920 -86.8260 97° East 488 562 33,000  Level FlightAware
11:11PM 21.1740 -86.7410 103° East 489 563 33,000  Level FlightAware
11:12PM 21.1530 -86.6620 106° East 490 564 33,000  Level FlightAware
11:12PM 21.1330 -86.5820 105° East 490 564 33,000  Level FlightAware
11:13PM 21.1110 -86.4960 105° East 490 564 33,000  Level FlightAware
11:14PM 21.0890 -86.4130 106° East 493 567 33,000  Level FlightAware
11:14PM 21.0670 -86.3420 108° East 493 567 33,000  Level FlightAware
11:15PM 21.0370 -86.2560 110° East 494 568 33,000  Level FlightAware
11:15PM 21.0030 -86.1900 119° Southeast 497 572 33,000  Level FlightAware
11:16PM 20.9620 -86.1460 135° Southeast 497 572 33,000  Level FlightAware
11:17PM 20.8330 -86.0390 142° Southeast 497 572 33,000  Level FlightAware
11:18PM 20.7680 -85.9840 142° Southeast 498 573 33,000  Level FlightAware
11:18PM 20.7070 -85.9320 141° Southeast 499 574 33,000  Level FlightAware
11:19PM 20.6310 -85.8680 142° Southeast 500 575 33,000  Level FlightAware
11:19PM 20.5610 -85.8080 141° Southeast 500 575 33,000  Level FlightAware
11:20PM 20.4900 -85.7480 142° Southeast 499 574 33,000  Level FlightAware
11:21PM 20.4330 -85.7000 142° Southeast 500 575 33,000  Level FlightAware
11:21PM 20.3710 -85.6470 141° Southeast 500 575 33,000  Level FlightAware
11:22PM 20.3160 -85.6000 141° Southeast 500 575 33,000  Level FlightAware
11:22PM 20.2610 -85.5520 141° Southeast 500 575 33,000  Level FlightAware
11:25PM 20.0586 -85.3510 137° Southeast  Level Estimated
11:26PM 19.9590 -85.2523 137° Southeast  Level Estimated
11:27PM 19.8593 -85.1538 137° Southeast  Level Estimated
11:28PM 19.7596 -85.0554 137° Southeast  Level Estimated
11:29PM 19.6598 -84.9571 137° Southeast  Level Estimated
11:30PM 19.5600 -84.8589 137° Southeast  Level Estimated
11:31PM 19.4601 -84.7609 137° Southeast  Level Estimated
11:32PM 19.3601 -84.6629 137° Southeast  Level Estimated
11:33PM 19.2602 -84.5651 137° Southeast  Level Estimated
11:34PM 19.1601 -84.4674 137° Southeast  Level Estimated
11:35PM 19.0600 -84.3699 137° Southeast  Level Estimated
11:36PM 18.9599 -84.2724 137° Southeast  Level Estimated
11:37PM 18.8597 -84.1751 137° Southeast  Level Estimated
11:38PM 18.7594 -84.0779 137° Southeast  Level Estimated
11:39PM 18.6591 -83.9808 137° Southeast  Level Estimated
11:40PM 18.5588 -83.8838 137° Southeast  Level Estimated
11:41PM 18.4584 -83.7869 138° Southeast  Level Estimated
11:42PM 18.3579 -83.6901 138° Southeast  Level Estimated
11:43PM 18.2574 -83.5935 138° Southeast  Level Estimated
11:44PM 18.1569 -83.4969 138° Southeast  Level Estimated
11:45PM 18.0563 -83.4005 138° Southeast  Level Estimated
11:46PM 17.9556 -83.3042 138° Southeast  Level Estimated
11:47PM 17.8549 -83.2080 138° Southeast  Level Estimated
11:48PM 17.7542 -83.1119 138° Southeast  Level Estimated
11:49PM 17.6534 -83.0159 138° Southeast  Level Estimated
11:50PM 17.5526 -82.9200 138° Southeast  Level Estimated
11:51PM 17.4517 -82.8242 138° Southeast  Level Estimated
11:52PM 17.3508 -82.7286 138° Southeast  Level Estimated
11:53PM 17.2498 -82.6330 138° Southeast  Level Estimated
11:54PM 17.1488 -82.5376 138° Southeast  Level Estimated
11:55PM 17.0478 -82.4422 138° Southeast  Level Estimated
11:56PM 16.9467 -82.3469 138° Southeast  Level Estimated
11:57PM 16.8455 -82.2518 138° Southeast  Level Estimated
11:58PM 16.7443 -82.1568 138° Southeast  Level Estimated
11:59PM 16.6431 -82.0618 138° Southeast  Level Estimated
12:00AM 16.5418 -81.9669 138° Southeast  Level Estimated
12:01AM 16.4405 -81.8722 138° Southeast  Level Estimated
12:02AM 16.3392 -81.7775 138° Southeast  Level Estimated
12:03AM 16.2378 -81.6830 138° Southeast  Level Estimated
12:04AM 16.1363 -81.5885 138° Southeast  Level Estimated
12:05AM 16.0348 -81.4942 138° Southeast  Level Estimated
12:06AM 15.9333 -81.3999 138° Southeast  Level Estimated
12:07AM 15.8317 -81.3058 138° Southeast  Level Estimated
12:08AM 15.7301 -81.2117 138° Southeast  Level Estimated
12:09AM 15.6285 -81.1177 138° Southeast  Level Estimated
12:10AM 15.5268 -81.0238 138° Southeast  Level Estimated
12:11AM 15.4250 -80.9301 138° Southeast  Level Estimated
12:12AM 15.3233 -80.8363 138° Southeast  Level Estimated
12:13AM 15.2215 -80.7427 138° Southeast  Level Estimated
12:14AM 15.1196 -80.6492 138° Southeast  Level Estimated
12:15AM 15.0212 -80.5590 138° Southeast  Level Estimated
12:16AM 14.9227 -80.4688 138° Southeast  Level Estimated
12:17AM 14.8242 -80.3787 139° Southeast  Level Estimated
12:18AM 14.7257 -80.2887 139° Southeast  Level Estimated
12:19AM 14.6271 -80.1988 139° Southeast  Level Estimated
12:20AM 14.5285 -80.1089 139° Southeast  Level Estimated
12:21AM 14.4299 -80.0191 139° Southeast  Level Estimated
12:22AM 14.3312 -79.9294 139° Southeast  Level Estimated
12:23AM 14.2325 -79.8398 139° Southeast  Level Estimated
12:24AM 14.1338 -79.7503 139° Southeast  Level Estimated
12:25AM 14.0350 -79.6608 139° Southeast  Level Estimated
12:26AM 13.9362 -79.5715 139° Southeast  Level Estimated
12:27AM 13.8374 -79.4822 139° Southeast  Level Estimated
12:28AM 13.7385 -79.3929 139° Southeast  Level Estimated
12:29AM 13.6396 -79.3038 139° Southeast  Level Estimated
12:30AM 13.5407 -79.2147 139° Southeast  Level Estimated
12:31AM 13.4417 -79.1257 139° Southeast  Level Estimated
12:32AM 13.3427 -79.0368 139° Southeast  Level Estimated
12:33AM 13.2437 -78.9479 139° Southeast  Level Estimated
12:34AM 13.1446 -78.8591 139° Southeast  Level Estimated
12:35AM 13.0456 -78.7704 139° Southeast  Level Estimated
12:36AM 12.9464 -78.6818 139° Southeast  Level Estimated
12:37AM 12.8473 -78.5932 139° Southeast  Level Estimated
12:38AM 12.7481 -78.5047 139° Southeast  Level Estimated
12:39AM 12.6489 -78.4163 139° Southeast  Level Estimated
12:40AM 12.5497 -78.3279 139° Southeast  Level Estimated
12:41AM 12.4504 -78.2396 139° Southeast  Level Estimated
12:42AM 12.3511 -78.1514 139° Southeast  Level Estimated
12:43AM 12.2518 -78.0632 139° Southeast  Level Estimated
12:44AM 12.1524 -77.9752 139° Southeast  Level Estimated
12:45AM 12.0531 -77.8871 139° Southeast  Level Estimated
12:46AM 11.9537 -77.7992 139° Southeast  Level Estimated
12:47AM 11.8542 -77.7113 139° Southeast  Level Estimated
12:48AM 11.7548 -77.6234 139° Southeast  Level Estimated
12:49AM 11.6553 -77.5357 139° Southeast  Level Estimated
12:50AM 11.5558 -77.4480 139° Southeast  Level Estimated
12:51AM 11.4562 -77.3603 139° Southeast  Level Estimated
12:52AM 11.3567 -77.2727 139° Southeast  Level Estimated
12:52AM 11.2420 -76.8680 139° Southeast 490 564 35,000  Level FlightAware
12:53AM 11.2571 -77.1852 139° Southeast  Level Estimated
12:53AM 11.2280 -76.7790 99° East 491 565 35,000  Level FlightAware
12:54AM 11.2170 -76.6910 97° East 492 566 35,000  Level FlightAware
12:54AM 11.2000 -76.5760 99° East 495 570 35,000  Level FlightAware
12:55AM 11.1910 -76.5050 97° East 495 570 35,000  Level FlightAware
12:56AM 11.1790 -76.4100 97° East 501 577 35,000  Level FlightAware
12:56AM 11.1830 -76.3150 88° East 500 575 35,000  Level FlightAware
12:57AM 11.1860 -76.2440 88° East 499 574 35,000  Level FlightAware
12:57AM 11.1900 -76.1620 87° East 500 575 35,000  Level FlightAware
12:58AM 11.1960 -76.0570 87° East 501 577 35,000  Level FlightAware
12:59AM 11.2000 -75.9760 87° East 502 578 35,000  Level FlightAware
12:59AM 11.2050 -75.8930 86° East 500 575 35,000  Level FlightAware
01:00AM 11.2110 -75.8090 86° East 499 574 35,000  Level FlightAware
01:00AM 11.2160 -75.7310 86° East 499 574 35,000  Level FlightAware
01:01AM 11.2210 -75.6590 86° East 499 574 35,000  Level FlightAware
01:01AM 11.1620 -75.5970 134° Southeast 765 880 35,000  Level FlightAware
01:02AM 11.1330 -75.5670 135° Southeast 493 567 35,000  Level FlightAware
01:02AM 11.0810 -75.5190 138° Southeast 490 564 35,000  Level FlightAware
01:03AM 11.0370 -75.4540 125° Southeast 492 566 35,000  Level FlightAware
01:03AM 10.9940 -75.3870 123° Southeast 492 566 35,000  Level FlightAware
01:04AM 10.9490 -75.3180 124° Southeast 492 566 35,000  Level FlightAware
01:05AM 10.8990 -75.2400 123° Southeast 492 566 35,000  Level FlightAware
01:05AM 10.8550 -75.1720 123° Southeast 493 567 35,000  Level FlightAware
01:06AM 10.8110 -75.1190 130° Southeast 493 567 35,000  Level FlightAware
01:06AM 10.7560 -75.0690 138° Southeast 492 566 35,000  Level FlightAware
01:07AM 10.6880 -75.0190 144° Southeast 491 565 35,000  Level FlightAware
01:07AM 10.6210 -74.9730 146° Southeast 490 564 35,000  Level FlightAware
01:08AM 10.5520 -74.9380 153° Southeast 488 562 35,000  Level FlightAware
01:09AM 10.4700 -74.9070 160° South 487 560 35,000  Level FlightAware
01:09AM 10.4080 -74.8860 162° South 487 560 35,000  Level FlightAware
01:10AM 10.3280 -74.8600 162° South 486 559 35,000  Level FlightAware
01:10AM 10.2510 -74.8350 162° South 486 559 35,000  Level FlightAware
01:11AM 10.1650 -74.8070 162° South 485 558 35,000  Level FlightAware
01:12AM 10.1000 -74.7870 163° South 484 557 35,000  Level FlightAware
01:12AM 10.0290 -74.7640 162° South 482 555 35,000  Level FlightAware
01:13AM 9.9420 -74.7360 162° South 482 555 35,000  Level FlightAware
01:13AM 9.8660 -74.7110 162° South 483 556 35,000  Level FlightAware
01:14AM 9.8050 -74.6920 163° South 483 556 35,000  Level FlightAware
01:14AM 9.7270 -74.6670 162° South 483 556 35,000  Level FlightAware
01:15AM 9.6430 -74.6400 162° South 484 557 35,000  Level FlightAware
01:16AM 9.5660 -74.6150 162° South 485 558 35,000  Level FlightAware
01:16AM 9.5030 -74.5950 163° South 484 557 35,000  Level FlightAware
01:17AM 9.4280 -74.5710 162° South 485 558 35,000  Level FlightAware
01:17AM 9.3540 -74.5470 162° South 486 559 35,000  Level FlightAware
01:18AM 9.2650 -74.5180 162° South 488 562 35,000  Level FlightAware
01:19AM 9.2040 -74.4990 163° South 488 562 35,000  Level FlightAware
01:19AM 9.1260 -74.4740 162° South 487 560 35,000  Level FlightAware
01:20AM 9.0420 -74.4470 162° South 488 562 35,000  Level FlightAware
01:20AM 8.9650 -74.4220 162° South 489 563 35,000  Level FlightAware
01:21AM 8.9010 -74.4020 163° South 488 562 35,000  Level FlightAware
01:21AM 8.8250 -74.3770 162° South 488 562 35,000  Level FlightAware
01:22AM 8.7390 -74.3470 161° South 485 558 35,000  Level FlightAware
01:23AM 8.6850 -74.3120 147° Southeast 487 560 35,000  Level FlightAware
01:23AM 8.6170 -74.2620 144° Southeast 486 559 35,000  Level FlightAware
01:24AM 8.5570 -74.2180 144° Southeast 486 559 35,000  Level FlightAware
01:24AM 8.4800 -74.1620 144° Southeast 489 563 35,000  Level FlightAware
01:25AM 8.4280 -74.1230 143° Southeast 490 564 35,000  Level FlightAware
01:26AM 8.3640 -74.0760 144° Southeast 491 565 35,000  Level FlightAware
01:26AM 8.2920 -74.0230 144° Southeast 489 563 35,000  Level FlightAware
01:27AM 8.2160 -73.9660 143° Southeast 486 559 35,000  Level FlightAware
01:28AM 8.1570 -73.9230 144° Southeast 487 560 35,000  Level FlightAware
01:28AM 8.0850 -73.8650 141° Southeast 485 558 35,000  Level FlightAware
01:29AM 8.0190 -73.7770 127° Southeast 486 559 35,000  Level FlightAware
01:30AM 7.9700 -73.6970 122° Southeast 482 555 35,000  Level FlightAware
01:30AM 7.9350 -73.6380 121° Southeast 482 555 35,000  Level FlightAware
01:31AM 7.8990 -73.5790 122° Southeast 482 555 35,000  Level FlightAware
01:32AM 7.8640 -73.5200 121° Southeast 482 555 35,000  Level FlightAware
01:32AM 7.8030 -73.4960 159° South 921 1060 35,000  Level FlightAware
01:34AM 7.6137 -73.3384 140° Southeast  Level Estimated
01:35AM 7.5123 -73.2540 140° Southeast  Level Estimated
01:36AM 7.4109 -73.1696 140° Southeast  Level Estimated
01:37AM 7.3094 -73.0853 140° Southeast  Level Estimated
01:37AM 7.1910 -73.1840 140° Southeast 489 563 35,000  Level FlightAware
01:37AM 7.1170 -73.1470 154° Southeast 488 562 35,000  Level FlightAware
01:38AM 7.0350 -73.1060 154° Southeast 488 562 35,000  Level FlightAware
01:39AM 6.9740 -73.0740 152° Southeast 488 562 35,000  Level FlightAware
01:39AM 6.9120 -73.0420 153° Southeast 488 562 35,000  Level FlightAware
01:40AM 6.8510 -73.0110 153° Southeast 488 562 35,000  Level FlightAware
01:40AM 6.7870 -72.9780 153° Southeast 488 562 35,000  Level FlightAware
01:41AM 6.7260 -72.9470 153° Southeast 488 562 35,000  Level FlightAware
01:42AM 6.6640 -72.9150 153° Southeast 488 562 35,000  Level FlightAware
01:42AM 6.6010 -72.8830 153° Southeast 488 562 35,000  Level FlightAware
01:43AM 6.5400 -72.8510 152° Southeast 488 562 35,000  Level FlightAware
01:43AM 6.4780 -72.8200 154° Southeast 488 562 35,000  Level FlightAware
01:44AM 6.4160 -72.7880 153° Southeast 488 562 35,000  Level FlightAware
01:45AM 6.3550 -72.7560 152° Southeast 488 562 35,000  Level FlightAware
01:45AM 6.2930 -72.7250 154° Southeast 488 562 35,000  Level FlightAware
01:46AM 6.2320 -72.6930 152° Southeast 488 562 35,000  Level FlightAware
01:46AM 6.1700 -72.6620 154° Southeast 488 562 35,000  Level FlightAware
01:47AM 6.1090 -72.6300 152° Southeast 488 562 35,000  Level FlightAware
01:50AM 5.8620 -72.4221 140° Southeast  Level Estimated
01:51AM 5.7612 -72.3373 140° Southeast  Level Estimated
01:52AM 5.6603 -72.2525 140° Southeast  Level Estimated
01:53AM 5.5595 -72.1678 140° Southeast  Level Estimated
01:54AM 5.4586 -72.0831 140° Southeast  Level Estimated
01:55AM 5.3577 -71.9984 140° Southeast  Level Estimated
01:56AM 5.2568 -71.9138 140° Southeast  Level Estimated
01:57AM 5.1560 -71.8291 140° Southeast  Level Estimated
01:58AM 5.0550 -71.7445 140° Southeast  Level Estimated
01:59AM 4.9541 -71.6600 140° Southeast  Level Estimated
02:00AM 4.8532 -71.5754 140° Southeast  Level Estimated
02:01AM 4.7522 -71.4909 140° Southeast  Level Estimated
02:02AM 4.6513 -71.4064 140° Southeast  Level Estimated
02:03AM 4.5503 -71.3219 140° Southeast  Level Estimated
02:04AM 4.4504 -71.2383 140° Southeast  Level Estimated
02:05AM 4.3505 -71.1548 140° Southeast  Level Estimated
02:06AM 4.2505 -71.0713 140° Southeast  Level Estimated
02:07AM 4.1506 -70.9878 140° Southeast  Level Estimated
02:08AM 4.0506 -70.9043 140° Southeast  Level Estimated
02:09AM 3.9506 -70.8208 140° Southeast  Level Estimated
02:10AM 3.8507 -70.7374 140° Southeast  Level Estimated
02:11AM 3.7507 -70.6540 140° Southeast  Level Estimated
02:12AM 3.6507 -70.5706 140° Southeast  Level Estimated
02:13AM 3.5507 -70.4872 140° Southeast  Level Estimated
02:14AM 3.4507 -70.4038 140° Southeast  Level Estimated
02:15AM 3.3507 -70.3205 140° Southeast  Level Estimated
02:16AM 3.2507 -70.2372 140° Southeast  Level Estimated
02:17AM 3.1506 -70.1539 140° Southeast  Level Estimated
02:18AM 3.0506 -70.0706 140° Southeast  Level Estimated
02:19AM 2.9506 -69.9873 140° Southeast  Level Estimated
02:20AM 2.8505 -69.9040 140° Southeast  Level Estimated
02:21AM 2.7505 -69.8208 140° Southeast  Level Estimated
02:22AM 2.6504 -69.7375 140° Southeast  Level Estimated
02:23AM 2.5503 -69.6543 140° Southeast  Level Estimated
02:24AM 2.4503 -69.5711 140° Southeast  Level Estimated
02:25AM 2.3502 -69.4879 140° Southeast  Level Estimated
02:26AM 2.2501 -69.4047 140° Southeast  Level Estimated
02:27AM 2.1500 -69.3215 140° Southeast  Level Estimated
02:28AM 2.0501 -69.2385 140° Southeast  Level Estimated
02:29AM 1.9502 -69.1555 140° Southeast  Level Estimated
02:30AM 1.8503 -69.0725 140° Southeast  Level Estimated
02:31AM 1.7504 -68.9895 140° Southeast  Level Estimated
02:32AM 1.6504 -68.9065 140° Southeast  Level Estimated
02:33AM 1.5505 -68.8236 140° Southeast  Level Estimated
02:34AM 1.4506 -68.7406 140° Southeast  Level Estimated
02:35AM 1.3506 -68.6576 140° Southeast  Level Estimated
02:36AM 1.2507 -68.5747 140° Southeast  Level Estimated
02:37AM 1.1507 -68.4918 140° Southeast  Level Estimated
02:38AM 1.0508 -68.4088 140° Southeast  Level Estimated
02:39AM 0.9508 -68.3259 140° Southeast  Level Estimated
02:40AM 0.8509 -68.2430 140° Southeast  Level Estimated
02:41AM 0.7509 -68.1600 140° Southeast  Level Estimated
02:42AM 0.6510 -68.0771 140° Southeast  Level Estimated
02:43AM 0.5510 -67.9942 140° Southeast  Level Estimated
02:44AM 0.4511 -67.9113 140° Southeast  Level Estimated
02:45AM 0.3511 -67.8284 140° Southeast  Level Estimated
02:46AM 0.2512 -67.7455 140° Southeast  Level Estimated
02:47AM 0.1512 -67.6626 140° Southeast  Level Estimated
02:48AM 0.0512 -67.5796 140° Southeast  Level Estimated
02:49AM -0.0487 -67.4967 140° Southeast  Level Estimated
02:50AM -0.1487 -67.4138 140° Southeast  Level Estimated
02:51AM -0.2486 -67.3309 140° Southeast  Level Estimated
02:52AM -0.3486 -67.2480 140° Southeast  Level Estimated
02:53AM -0.4486 -67.1651 140° Southeast  Level Estimated
02:54AM -0.5485 -67.0822 140° Southeast  Level Estimated
02:55AM -0.6485 -66.9993 140° Southeast  Level Estimated
02:56AM -0.7484 -66.9163 140° Southeast  Level Estimated
02:57AM -0.8484 -66.8334 140° Southeast  Level Estimated
02:58AM -0.9483 -66.7505 140° Southeast  Level Estimated
02:59AM -1.0483 -66.6676 140° Southeast  Level Estimated
03:00AM -1.1482 -66.5846 140° Southeast  Level Estimated
03:01AM -1.2482 -66.5017 140° Southeast  Level Estimated
03:02AM -1.3481 -66.4187 140° Southeast  Level Estimated
03:03AM -1.4481 -66.3358 140° Southeast  Level Estimated
03:04AM -1.5480 -66.2528 140° Southeast  Level Estimated
03:05AM -1.6479 -66.1698 140° Southeast  Level Estimated
03:06AM -1.7479 -66.0869 140° Southeast  Level Estimated
03:07AM -1.8478 -66.0039 140° Southeast  Level Estimated
03:08AM -1.9477 -65.9209 140° Southeast  Level Estimated
03:09AM -2.0476 -65.8379 140° Southeast  Level Estimated
03:10AM -2.1475 -65.7548 140° Southeast  Level Estimated
03:11AM -2.2475 -65.6718 140° Southeast  Level Estimated
03:12AM -2.3473 -65.5888 140° Southeast  Level Estimated
03:13AM -2.4472 -65.5057 140° Southeast  Level Estimated
03:14AM -2.5471 -65.4227 140° Southeast  Level Estimated
03:15AM -2.6470 -65.3396 140° Southeast  Level Estimated
03:16AM -2.7469 -65.2565 140° Southeast  Level Estimated
03:17AM -2.8468 -65.1734 140° Southeast  Level Estimated
03:18AM -2.9467 -65.0902 140° Southeast  Level Estimated
03:19AM -3.0465 -65.0071 140° Southeast  Level Estimated
03:20AM -3.1464 -64.9240 140° Southeast  Level Estimated
03:21AM -3.2462 -64.8408 140° Southeast  Level Estimated
03:22AM -3.3461 -64.7576 140° Southeast  Level Estimated
03:23AM -3.4459 -64.6744 140° Southeast  Level Estimated
03:24AM -3.5458 -64.5912 140° Southeast  Level Estimated
03:25AM -3.6456 -64.5080 140° Southeast  Level Estimated
03:26AM -3.7454 -64.4247 140° Southeast  Level Estimated
03:27AM -3.8452 -64.3414 140° Southeast  Level Estimated
03:28AM -3.9450 -64.2581 140° Southeast  Level Estimated
03:29AM -4.0448 -64.1748 140° Southeast  Level Estimated
03:30AM -4.1446 -64.0915 140° Southeast  Level Estimated
03:31AM -4.2443 -64.0082 140° Southeast  Level Estimated
03:32AM -4.3441 -63.9248 140° Southeast  Level Estimated
03:33AM -4.4439 -63.8414 140° Southeast  Level Estimated
03:34AM -4.5436 -63.7580 140° Southeast  Level Estimated
03:35AM -4.6434 -63.6745 140° Southeast  Level Estimated
03:36AM -4.7431 -63.5910 140° Southeast  Level Estimated
03:37AM -4.8428 -63.5076 140° Southeast  Level Estimated
03:38AM -4.9425 -63.4240 140° Southeast  Level Estimated
03:39AM -5.0422 -63.3405 140° Southeast  Level Estimated
03:40AM -5.1419 -63.2569 140° Southeast  Level Estimated
03:41AM -5.2416 -63.1733 140° Southeast  Level Estimated
03:42AM -5.3413 -63.0897 140° Southeast  Level Estimated
03:43AM -5.4409 -63.0061 140° Southeast  Level Estimated
03:44AM -5.5406 -62.9224 140° Southeast  Level Estimated
03:45AM -5.6402 -62.8387 140° Southeast  Level Estimated
03:46AM -5.7398 -62.7550 140° Southeast  Level Estimated
03:47AM -5.8394 -62.6712 140° Southeast  Level Estimated
03:48AM -5.9390 -62.5874 140° Southeast  Level Estimated
03:49AM -6.0386 -62.5036 140° Southeast  Level Estimated
03:50AM -6.1382 -62.4198 140° Southeast  Level Estimated
03:51AM -6.2377 -62.3359 140° Southeast  Level Estimated
03:52AM -6.3372 -62.2520 140° Southeast  Level Estimated
03:53AM -6.4368 -62.1680 140° Southeast  Level Estimated
03:54AM -6.5363 -62.0840 140° Southeast  Level Estimated
03:55AM -6.6358 -62.0000 140° Southeast  Level Estimated
03:56AM -6.7353 -61.9160 140° Southeast  Level Estimated
03:57AM -6.8347 -61.8319 140° Southeast  Level Estimated
03:58AM -6.9342 -61.7478 140° Southeast  Level Estimated
03:59AM -7.0336 -61.6636 140° Southeast  Level Estimated
04:00AM -7.1331 -61.5794 140° Southeast  Level Estimated
04:01AM -7.2325 -61.4952 140° Southeast  Level Estimated
04:02AM -7.3319 -61.4109 140° Southeast  Level Estimated
04:03AM -7.4313 -61.3266 140° Southeast  Level Estimated
04:04AM -7.5306 -61.2423 140° Southeast  Level Estimated
04:05AM -7.6300 -61.1579 140° Southeast  Level Estimated
04:06AM -7.7293 -61.0735 140° Southeast  Level Estimated
04:07AM -7.8286 -60.9891 140° Southeast  Level Estimated
04:08AM -7.9279 -60.9046 140° Southeast  Level Estimated
04:09AM -8.0272 -60.8200 140° Southeast  Level Estimated
04:10AM -8.1265 -60.7354 140° Southeast  Level Estimated
04:11AM -8.2257 -60.6508 140° Southeast  Level Estimated
04:12AM -8.3249 -60.5662 140° Southeast  Level Estimated
04:13AM -8.4242 -60.4815 140° Southeast  Level Estimated
04:14AM -8.5233 -60.3967 140° Southeast  Level Estimated
04:15AM -8.6225 -60.3119 140° Southeast  Level Estimated
04:16AM -8.7217 -60.2271 140° Southeast  Level Estimated
04:17AM -8.8208 -60.1422 140° Southeast  Level Estimated
04:18AM -8.9199 -60.0573 140° Southeast  Level Estimated
04:19AM -9.0190 -59.9723 140° Southeast  Level Estimated
04:20AM -9.1181 -59.8873 140° Southeast  Level Estimated
04:21AM -9.2172 -59.8022 140° Southeast  Level Estimated
04:22AM -9.3162 -59.7171 140° Southeast  Level Estimated
04:23AM -9.4152 -59.6319 140° Southeast  Level Estimated
04:24AM -9.5142 -59.5467 140° Southeast  Level Estimated
04:25AM -9.6132 -59.4615 140° Southeast  Level Estimated
04:26AM -9.7122 -59.3762 140° Southeast  Level Estimated
04:27AM -9.8111 -59.2908 140° Southeast  Level Estimated
04:28AM -9.9100 -59.2054 140° Southeast  Level Estimated
04:29AM -10.0089 -59.1199 140° Southeast  Level Estimated
04:30AM -10.1078 -59.0344 140° Southeast  Level Estimated
04:31AM -10.2066 -58.9488 140° Southeast  Level Estimated
04:32AM -10.3055 -58.8632 140° Southeast  Level Estimated
04:33AM -10.4043 -58.7775 140° Southeast  Level Estimated
04:34AM -10.5031 -58.6918 140° Southeast  Level Estimated
04:35AM -10.6018 -58.6060 140° Southeast  Level Estimated
04:36AM -10.7006 -58.5202 139° Southeast  Level Estimated
04:37AM -10.7993 -58.4343 139° Southeast  Level Estimated
04:38AM -10.8980 -58.3483 139° Southeast  Level Estimated
04:39AM -10.9966 -58.2623 139° Southeast  Level Estimated
04:40AM -11.0953 -58.1763 139° Southeast  Level Estimated
04:41AM -11.1939 -58.0901 139° Southeast  Level Estimated
04:42AM -11.2925 -58.0039 139° Southeast  Level Estimated
04:43AM -11.3910 -57.9177 139° Southeast  Level Estimated
04:44AM -11.4896 -57.8314 139° Southeast  Level Estimated
04:45AM -11.5881 -57.7450 139° Southeast  Level Estimated
04:46AM -11.6866 -57.6586 139° Southeast  Level Estimated
04:47AM -11.7851 -57.5721 139° Southeast  Level Estimated
04:48AM -11.8835 -57.4856 139° Southeast  Level Estimated
04:49AM -11.9819 -57.3990 139° Southeast  Level Estimated
04:50AM -12.0803 -57.3123 139° Southeast  Level Estimated
04:51AM -12.1786 -57.2256 139° Southeast  Level Estimated
04:52AM -12.2768 -57.1389 139° Southeast  Level Estimated
04:53AM -12.3749 -57.0522 139° Southeast  Level Estimated
04:54AM -12.4731 -56.9654 139° Southeast  Level Estimated
04:55AM -12.5711 -56.8786 139° Southeast  Level Estimated
04:56AM -12.6692 -56.7917 139° Southeast  Level Estimated
04:57AM -12.7672 -56.7047 139° Southeast  Level Estimated
04:58AM -12.8652 -56.6176 139° Southeast  Level Estimated
04:59AM -12.9632 -56.5305 139° Southeast  Level Estimated
05:00AM -13.0611 -56.4433 139° Southeast  Level Estimated
05:01AM -13.1590 -56.3561 139° Southeast  Level Estimated
05:02AM -13.2569 -56.2688 139° Southeast  Level Estimated
05:03AM -13.3547 -56.1814 139° Southeast  Level Estimated
05:04AM -13.4525 -56.0939 139° Southeast  Level Estimated
05:05AM -13.5503 -56.0064 139° Southeast  Level Estimated
05:06AM -13.6481 -55.9188 139° Southeast  Level Estimated
05:07AM -13.7458 -55.8311 139° Southeast  Level Estimated
05:08AM -13.8435 -55.7433 139° Southeast  Level Estimated
05:09AM -13.9412 -55.6555 139° Southeast  Level Estimated
05:10AM -14.0388 -55.5676 139° Southeast  Level Estimated
05:11AM -14.1364 -55.4796 139° Southeast  Level Estimated
05:12AM -14.2340 -55.3916 139° Southeast  Level Estimated
05:13AM -14.3315 -55.3034 139° Southeast  Level Estimated
05:14AM -14.4290 -55.2152 139° Southeast  Level Estimated
05:15AM -14.5265 -55.1270 139° Southeast  Level Estimated
05:16AM -14.6239 -55.0386 139° Southeast  Level Estimated
05:17AM -14.7213 -54.9502 139° Southeast  Level Estimated
05:18AM -14.8187 -54.8616 139° Southeast  Level Estimated
05:19AM -14.9160 -54.7730 139° Southeast  Level Estimated
05:20AM -15.0133 -54.6844 139° Southeast  Level Estimated
05:21AM -15.1106 -54.5956 139° Southeast  Level Estimated
05:22AM -15.2078 -54.5068 139° Southeast  Level Estimated
05:23AM -15.3050 -54.4178 139° Southeast  Level Estimated
05:24AM -15.4022 -54.3288 139° Southeast  Level Estimated
05:25AM -15.4993 -54.2397 139° Southeast  Level Estimated
05:26AM -15.5964 -54.1506 139° Southeast  Level Estimated
05:27AM -15.6935 -54.0613 138° Southeast  Level Estimated
05:28AM -15.7905 -53.9720 138° Southeast  Level Estimated
05:29AM -15.8875 -53.8826 138° Southeast  Level Estimated
05:30AM -15.9844 -53.7930 138° Southeast  Level Estimated
05:31AM -16.0813 -53.7034 138° Southeast  Level Estimated
05:32AM -16.1782 -53.6138 138° Southeast  Level Estimated
05:33AM -16.2750 -53.5240 138° Southeast  Level Estimated
05:34AM -16.3718 -53.4341 138° Southeast  Level Estimated
05:35AM -16.4686 -53.3442 138° Southeast  Level Estimated
05:36AM -16.5653 -53.2541 138° Southeast  Level Estimated
05:37AM -16.6620 -53.1640 138° Southeast  Level Estimated
05:38AM -16.7586 -53.0738 138° Southeast  Level Estimated
05:39AM -16.8552 -52.9835 138° Southeast  Level Estimated
05:40AM -16.9518 -52.8931 138° Southeast  Level Estimated
05:41AM -17.0483 -52.8026 138° Southeast  Level Estimated
05:42AM -17.1448 -52.7120 138° Southeast  Level Estimated
05:43AM -17.2412 -52.6213 138° Southeast  Level Estimated
05:44AM -17.3377 -52.5305 138° Southeast  Level Estimated
05:45AM -17.4340 -52.4396 138° Southeast  Level Estimated
05:46AM -17.5303 -52.3487 138° Southeast  Level Estimated
05:47AM -17.6266 -52.2576 138° Southeast  Level Estimated
05:48AM -17.7229 -52.1664 138° Southeast  Level Estimated
05:49AM -17.8190 -52.0751 138° Southeast  Level Estimated
05:50AM -17.9152 -51.9838 138° Southeast  Level Estimated
05:50AM -18.9320 -50.7450 138° Southeast 492 566 35,000  Level FlightAware
05:51AM -18.0113 -51.8923 138° Southeast  Level Estimated
05:51AM -18.9810 -50.6890 133° Southeast 492 566 35,000  Level FlightAware
05:51AM -19.0290 -50.6360 134° Southeast 492 566 35,000  Level FlightAware
05:52AM -19.1050 -50.5560 135° Southeast 492 566 35,000  Level FlightAware
05:52AM -19.1610 -50.4950 134° Southeast 492 566 35,000  Level FlightAware
05:53AM -19.2120 -50.4390 134° Southeast 492 566 35,000  Level FlightAware
05:54AM -19.2700 -50.3760 134° Southeast 493 567 35,000  Level FlightAware
05:54AM -19.3270 -50.3130 134° Southeast 493 567 35,000  Level FlightAware
05:55AM -19.3810 -50.2540 134° Southeast 492 566 35,000  Level FlightAware
05:55AM -19.4340 -50.1950 134° Southeast 493 567 35,000  Level FlightAware
05:56AM -19.4890 -50.1350 134° Southeast 493 567 35,000  Level FlightAware
05:56AM -19.5450 -50.0730 134° Southeast 493 567 35,000  Level FlightAware
05:57AM -19.6000 -50.0120 134° Southeast 493 567 35,000  Level FlightAware
05:58AM -19.6630 -49.9430 134° Southeast 493 567 35,000  Level FlightAware
05:58AM -19.7140 -49.8880 135° Southeast 492 566 35,000  Level FlightAware
05:59AM -19.7750 -49.8220 134° Southeast 494 568 35,000  Level FlightAware
05:59AM -19.8230 -49.7680 133° Southeast 494 568 35,000  Level FlightAware
06:00AM -19.8760 -49.7110 135° Southeast 494 568 35,000  Level FlightAware
06:01AM -19.9360 -49.6450 134° Southeast 494 568 35,000  Level FlightAware
06:01AM -19.9880 -49.5880 134° Southeast 494 568 35,000  Level FlightAware
06:02AM -20.0510 -49.5190 134° Southeast 495 570 35,000  Level FlightAware
06:02AM -20.1020 -49.4620 134° Southeast 494 568 35,000  Level FlightAware
06:03AM -20.1590 -49.4000 134° Southeast 495 570 35,000  Level FlightAware
06:04AM -20.2170 -49.3360 134° Southeast 495 570 35,000  Level FlightAware
06:04AM -20.2750 -49.2720 134° Southeast 495 570 35,000  Level FlightAware
06:05AM -20.3250 -49.2170 134° Southeast 494 568 35,000  Level FlightAware
06:05AM -20.3810 -49.1550 134° Southeast 494 568 35,000  Level FlightAware
06:06AM -20.4350 -49.0950 134° Southeast 495 570 35,000  Level FlightAware
06:06AM -20.4960 -49.0270 134° Southeast 494 568 35,000  Level FlightAware
06:07AM -20.5490 -48.9680 134° Southeast 495 570 35,000  Level FlightAware
06:08AM -20.6010 -48.9120 135° Southeast 495 570 35,000  Level FlightAware
06:08AM -20.6580 -48.8480 134° Southeast 496 571 35,000  Level FlightAware
06:09AM -20.7110 -48.7880 133° Southeast 496 571 35,000  Level FlightAware
06:09AM -20.7680 -48.7240 134° Southeast 495 570 35,000  Level FlightAware
06:10AM -20.8290 -48.6570 134° Southeast 495 570 35,000  Level FlightAware
06:11AM -20.8860 -48.5930 134° Southeast 495 570 35,000  Level FlightAware
06:11AM -20.9370 -48.5350 133° Southeast 495 570 35,000  Level FlightAware
06:12AM -20.9900 -48.4760 134° Southeast 495 570 35,000  Level FlightAware
06:12AM -21.0400 -48.4190 133° Southeast 496 571 35,000  Level FlightAware
06:13AM -21.1020 -48.3500 134° Southeast 494 568 35,000  Level FlightAware
06:13AM -21.1650 -48.2940 140° Southeast 493 567 35,000  Level FlightAware
06:14AM -21.2280 -48.2410 142° Southeast 493 567 35,000  Level FlightAware
06:15AM -21.2940 -48.1860 142° Southeast 492 566 35,000  Level FlightAware
06:15AM -21.3510 -48.1390 142° Southeast 492 566 35,000  Level FlightAware
06:16AM -21.4170 -48.0830 142° Southeast 492 566 35,000  Level FlightAware
06:16AM -21.4780 -48.0320 142° Southeast 492 566 35,000  Level FlightAware
06:17AM -21.5420 -47.9780 142° Southeast 491 565 35,000  Level FlightAware
06:18AM -21.6070 -47.9230 142° Southeast 491 565 35,000  Level FlightAware
06:18AM -21.6720 -47.8690 142° Southeast 491 565 35,000  Level FlightAware
06:19AM -21.7280 -47.8210 141° Southeast 492 566 35,000  Level FlightAware
06:19AM -21.7920 -47.7670 142° Southeast 491 565 35,000 -540 Level FlightAware
06:20AM -21.8560 -47.7130 142° Southeast 489 563 34,400 -1,260 Descending FlightAware
06:20AM -21.9200 -47.6590 142° Southeast 492 566 33,500 -1,440 Descending FlightAware
06:21AM -21.9770 -47.6100 141° Southeast 496 571 32,800 -1,980 Descending FlightAware
06:22AM -22.0440 -47.5530 142° Southeast 493 567 31,300 -2,340 Descending FlightAware
06:22AM -22.1060 -47.5010 142° Southeast 487 560 30,000 -2,280 Descending FlightAware
06:23AM -22.1710 -47.4450 141° Southeast 481 554 28,600 -2,220 Descending FlightAware
06:23AM -22.2260 -47.3980 142° Southeast 474 545 27,500 -2,100 Descending FlightAware
06:24AM -22.2880 -47.3450 142° Southeast 467 537 26,200 -2,100 Descending FlightAware
06:25AM -22.3490 -47.2930 142° Southeast 459 528 25,000 -2,040 Descending FlightAware
06:25AM -22.4040 -47.2460 142° Southeast 453 521 23,900 -2,040 Descending FlightAware
06:26AM -22.4610 -47.1970 142° Southeast 448 516 22,700 -2,100 Descending FlightAware
06:26AM -22.5210 -47.1460 142° Southeast 441 507 21,400 -2,100 Descending FlightAware
06:27AM -22.5800 -47.1000 144° Southeast 433 498 20,200 -1,980 Descending FlightAware
06:27AM -22.6390 -47.0720 156° South 428 493 19,200 -1,980 Descending FlightAware
06:28AM -22.6960 -47.0480 159° South 415 478 18,100 -2,040 Descending FlightAware
06:29AM -22.7690 -47.0170 159° South 416 479 16,800 -2,040 Descending FlightAware
06:29AM -22.8330 -46.9900 159° South 412 474 15,600 -1,860 Descending FlightAware
06:30AM -22.8850 -46.9690 160° South 397 457 14,800 -1,980 Descending FlightAware
06:30AM -22.9470 -46.9420 158° South 382 440 13,500 -2,100 Descending FlightAware
06:31AM -23.0000 -46.9200 159° South 348 400 12,400 -1,320 Descending FlightAware
06:32AM -23.0590 -46.8950 159° South 315 362 11,900 -1,380 Descending FlightAware
06:32AM -23.0980 -46.8790 159° South 311 358 10,800 -1,560 Descending FlightAware
06:33AM -23.1560 -46.8540 158° South 278 320 10,000 -780 Descending FlightAware
06:33AM -23.1790 -46.8450 160° South 261 300 10,000 -360 Level FlightAware
06:33AM -23.1950 -46.8380 158° South 245 282 9,800 -720 Descending FlightAware
06:34AM -23.2170 -46.8290 159° South 240 276 9,600 -480 Descending FlightAware
06:34AM -23.2360 -46.8200 156° South 228 262 9,500 -660 Descending FlightAware
06:34AM -23.2560 -46.8120 160° South 210 242 9,200 -900 Descending FlightAware
06:35AM -23.2740 -46.8040 158° South 212 244 8,900 -1,020 Descending FlightAware
06:35AM -23.2880 -46.7980 159° South 208 239 8,600 -1,200 Descending FlightAware
06:35AM -23.3100 -46.7890 159° South 207 238 8,100 -1,260 Descending FlightAware
06:36AM -23.3280 -46.7820 160° South 206 237 7,700 -1,380 Descending FlightAware
06:36AM -23.3470 -46.7740 159° South 206 237 7,200 -1,320 Descending FlightAware
06:36AM -23.3650 -46.7660 158° South 210 242 6,800 -1,140 Descending FlightAware
06:37AM -23.3820 -46.7530 145° Southeast 202 232 6,400 -1,020 Descending FlightAware
06:37AM -23.3970 -46.7400 142° Southeast 189 217 6,100 -900 Descending FlightAware
06:37AM -23.4100 -46.7280 140° Southeast 185 213 5,800 -960 Descending FlightAware
06:38AM -23.4250 -46.7130 137° Southeast 185 213 5,400 -840 Descending FlightAware
06:38AM -23.4340 -46.7050 141° Southeast 185 213 5,300 -540 Descending FlightAware
06:38AM -23.4470 -46.6920 137° Southeast 182 209 5,100 -660 Descending FlightAware
06:39AM -23.4500 -46.6860 119° Southeast 179 206 5,000 -1,020 Descending FlightAware
06:39AM -23.4560 -46.6730 117° Southeast 180 207 4,700 -840 Descending FlightAware
06:39AM -23.4630 -46.6570 116° Southeast 183 211 4,500 -300 Descending FlightAware
06:39AM -23.4710 -46.6390 116° Southeast 183 211 4,500  Level FlightAware
06:40AM -23.4740 -46.6260 104° East 180 207 4,500 -180 Level FlightAware
06:40AM -23.4710 -46.6050 81° East 175 201 4,400 -540 Descending FlightAware
06:41AM -23.4650 -46.5850 72° East 162 186 4,100 -840 Descending FlightAware
06:41AM -23.4610 -46.5700 74° East 151 174 3,800 -900 Descending FlightAware
06:41AM -23.4570 -46.5550 74° East 147 169 3,500 -780 Descending FlightAware
06:42AM -23.4540 -46.5420 76° East 147 169 3,300 -720 Descending FlightAware
06:42AM -23.4490 -46.5250 72° East 151 174 3,000 -780 Descending FlightAware
06:42AM -23.4430 -46.5010 75° East 144 166 2,600 -660 Descending FlightAware
06:43AM -23.4400 -46.4920 70° East 144 166 2,400 -240 Descending FlightAware
06:43AM -23.4360 -46.4780 73° East 144 166 2,400  Level FlightAware